Time;durP1;ratioP1;P1;durP2;ratioP2;P2;SDS_P1;SDS_P2;PMS_P1;PMS_P2;Temp;Humidity;BMP_temperature;BMP_pressure;BME280_temperature;BME280_humidity;BME280_pressure;Samples;Min_cycle;Max_cycle;Signal;HPM_P1;HPM_P2
2021/03/26 00:01:18;;;;;;;30.55;19.35;;;8.40;84.30;;;;;;5133339;27;20026;-76
2021/03/26 00:03:46;;;;;;;28.83;19.27;;;8.40;84.40;;;;;;5133841;28;20027;-76
2021/03/26 00:06:18;;;;;;;28.42;19.15;;;8.40;84.40;;;;;;5115635;28;20027;-76
2021/03/26 00:08:44;;;;;;;27.58;18.42;;;8.30;84.50;;;;;;5133369;28;20019;-76
2021/03/26 00:11:11;;;;;;;25.60;19.13;;;8.30;84.40;;;;;;5113564;28;20092;-76
2021/03/26 00:13:38;;;;;;;27.17;19.02;;;8.30;84.50;;;;;;5095189;28;20074;-76
2021/03/26 00:16:05;;;;;;;29.48;19.88;;;8.30;84.40;;;;;;5131147;28;20429;-76
2021/03/26 00:18:31;;;;;;;29.63;19.75;;;8.30;84.40;;;;;;5133631;27;20027;-76
2021/03/26 00:20:57;;;;;;;28.88;19.77;;;8.20;84.40;;;;;;5114943;27;20030;-76
2021/03/26 00:23:24;;;;;;;28.90;19.63;;;8.20;84.50;;;;;;5133748;28;20552;-76
2021/03/26 00:25:49;;;;;;;26.23;18.80;;;8.10;84.50;;;;;;5115469;28;20118;-75
2021/03/26 00:28:15;;;;;;;30.55;19.98;;;8.10;84.50;;;;;;5114964;28;20123;-76
2021/03/26 00:30:41;;;;;;;31.00;19.25;;;8.00;84.40;;;;;;5094843;28;20024;-75
2021/03/26 00:33:08;;;;;;;31.75;18.92;;;8.00;84.50;;;;;;5112638;28;20019;-75
2021/03/26 00:35:35;;;;;;;29.35;19.90;;;8.00;84.60;;;;;;5132764;28;20030;-76
2021/03/26 00:38:01;;;;;;;29.65;20.08;;;8.00;84.60;;;;;;5132962;28;20019;-76
2021/03/26 00:40:27;;;;;;;29.65;19.30;;;7.90;84.60;;;;;;5114169;28;20152;-76
2021/03/26 00:42:53;;;;;;;31.67;20.90;;;8.00;84.70;;;;;;5114469;27;20491;-75
2021/03/26 00:45:24;;;;;;;30.95;20.40;;;7.90;84.60;;;;;;5097234;28;20479;-76
2021/03/26 00:47:50;;;;;;;32.05;20.38;;;7.90;84.80;;;;;;5132976;27;20027;-76
2021/03/26 00:50:49;;;;;;;31.77;19.85;;;7.90;84.80;;;;;;5136146;27;20462;-75
2021/03/26 00:53:19;;;;;;;27.85;19.00;;;7.90;84.80;;;;;;5121390;27;20043;-76
2021/03/26 00:55:45;;;;;;;26.38;19.40;;;7.80;84.80;;;;;;5136771;27;20023;-76
2021/03/26 00:58:12;;;;;;;29.98;19.73;;;7.80;84.80;;;;;;5118664;27;20118;-76
2021/03/26 01:00:38;;;;;;;31.25;19.80;;;7.80;84.90;;;;;;5117418;27;20027;-75
2021/03/26 01:03:06;;;;;;;32.78;20.35;;;7.70;85.00;;;;;;5118074;27;20029;-76
2021/03/26 01:05:35;;;;;;;31.92;20.55;;;7.70;85.00;;;;;;5118342;27;20054;-75
2021/03/26 01:08:03;;;;;;;;;;;7.70;85.00;;;;;;5136771;27;20449;-76
2021/03/26 01:10:36;;;;;;;30.77;19.30;;;7.70;84.80;;;;;;5118175;27;19903;-75
2021/03/26 01:13:05;;;;;;;30.08;20.55;;;7.60;85.00;;;;;;5136376;27;20051;-76
2021/03/26 01:15:31;;;;;;;29.88;19.92;;;7.60;85.10;;;;;;5136639;27;20053;-75
2021/03/26 01:17:59;;;;;;;30.05;20.13;;;7.60;85.10;;;;;;5136147;27;20494;-76
2021/03/26 01:20:29;;;;;;;31.95;20.42;;;7.60;85.10;;;;;;5117935;27;20060;-76
2021/03/26 01:22:54;;;;;;;33.08;21.00;;;7.50;85.00;;;;;;5136158;27;20019;-75
2021/03/26 01:25:29;;;;;;;30.75;21.20;;;7.50;85.00;;;;;;5117820;27;20075;-75
2021/03/26 01:27:55;;;;;;;32.42;20.67;;;7.50;85.10;;;;;;5136226;27;20028;-75
2021/03/26 01:30:23;;;;;;;31.77;20.73;;;7.40;85.00;;;;;;5117815;27;20023;-75
2021/03/26 01:32:51;;;;;;;31.15;20.65;;;7.40;85.10;;;;;;5135084;27;20034;-76
2021/03/26 01:35:17;;;;;;;32.65;20.63;;;7.40;85.10;;;;;;5135854;27;20024;-75
2021/03/26 01:37:44;;;;;;;33.72;21.40;;;7.40;85.10;;;;;;5117021;27;20050;-76
2021/03/26 01:40:12;;;;;;;35.83;22.27;;;7.50;85.20;;;;;;5117532;27;20019;-76
2021/03/26 01:42:39;;;;;;;34.08;21.70;;;7.40;85.30;;;;;;5134681;27;20080;-75
2021/03/26 01:45:11;;;;;;;34.92;23.48;;;7.40;85.40;;;;;;5135562;27;20031;-75
2021/03/26 01:47:36;;;;;;;35.33;22.48;;;7.40;85.50;;;;;;5116868;27;20030;-75
2021/03/26 01:50:06;;;;;;;39.40;22.95;;;7.40;85.60;;;;;;5135396;27;20028;-76
2021/03/26 01:52:32;;;;;;;37.60;23.73;;;7.40;86.00;;;;;;5134422;27;20046;-76
2021/03/26 01:54:58;;;;;;;35.38;22.67;;;7.40;85.70;;;;;;5097141;28;20047;-75
2021/03/26 01:57:24;;;;;;;37.40;22.35;;;7.40;85.80;;;;;;5128871;27;20096;-75
2021/03/26 01:59:49;;;;;;;34.78;22.35;;;7.40;85.80;;;;;;5134941;27;20027;-75
2021/03/26 02:02:22;;;;;;;38.75;23.00;;;7.40;85.90;;;;;;5082392;27;20472;-75
2021/03/26 02:04:48;;;;;;;38.00;22.05;;;7.40;85.90;;;;;;5135255;27;20055;-75
2021/03/26 02:07:20;;;;;;;39.35;22.70;;;7.30;85.90;;;;;;5116419;27;20043;-75
2021/03/26 02:09:46;;;;;;;37.00;22.30;;;7.40;86.00;;;;;;5135077;27;20015;-75
2021/03/26 02:12:15;;;;;;;38.28;22.77;;;7.30;86.00;;;;;;5116655;27;20027;-75
2021/03/26 02:14:46;;;;;;;32.60;21.73;;;7.30;86.10;;;;;;5116811;27;20019;-75
2021/03/26 02:17:16;;;;;;;35.08;22.20;;;7.30;86.20;;;;;;5135012;27;20132;-76
2021/03/26 02:19:51;;;;;;;38.85;22.67;;;7.30;86.30;;;;;;5134791;27;20035;-75
2021/03/26 02:22:18;;;;;;;36.88;23.80;;;7.30;86.40;;;;;;5113591;27;20019;-75
2021/03/26 02:24:45;;;;;;;39.22;24.02;;;7.30;86.30;;;;;;5116306;27;20038;-75
2021/03/26 02:27:17;;;;;;;34.80;24.02;;;7.20;86.50;;;;;;5135258;27;20608;-75
2021/03/26 02:29:43;;;;;;;38.05;25.13;;;7.30;86.50;;;;;;5134990;27;20383;-76
2021/03/26 02:32:15;;;;;;;36.50;23.80;;;7.20;86.50;;;;;;5117026;27;20027;-75
2021/03/26 02:35:16;;;;;;;34.45;23.15;;;7.20;86.50;;;;;;5116118;27;20027;-75
2021/03/26 02:37:55;;;;;;;38.17;22.83;;;7.20;86.60;;;;;;5134985;27;20478;-75
2021/03/26 02:40:42;;;;;;;40.60;24.15;;;7.20;86.60;;;;;;5130904;27;20019;-75
2021/03/26 02:43:22;;;;;;;36.05;24.35;;;7.10;86.60;;;;;;5134554;27;20027;-76
2021/03/26 02:45:57;;;;;;;39.60;25.00;;;7.10;86.80;;;;;;5134903;27;20080;-75
2021/03/26 02:48:50;;;;;;;34.83;23.02;;;7.10;86.80;;;;;;5134528;27;20107;-75
2021/03/26 02:51:19;;;;;;;37.67;25.60;;;7.10;87.00;;;;;;5134495;27;20035;-75
2021/03/26 02:54:00;;;;;;;41.17;26.15;;;7.00;86.90;;;;;;5115695;27;20039;-75
2021/03/26 02:56:34;;;;;;;39.38;25.25;;;7.10;87.10;;;;;;5134063;27;20106;-76
2021/03/26 02:59:13;;;;;;;40.72;26.00;;;7.10;87.10;;;;;;5116356;27;20114;-75
2021/03/26 03:01:47;;;;;;;43.40;27.77;;;7.10;87.10;;;;;;5134078;27;20106;-76
2021/03/26 03:04:26;;;;;;;40.10;26.33;;;7.10;87.10;;;;;;5134358;27;20027;-75
2021/03/26 03:06:59;;;;;;;39.10;27.15;;;7.00;87.10;;;;;;5134120;27;20027;-75
2021/03/26 03:09:26;;;;;;;39.33;25.60;;;7.00;87.10;;;;;;5134448;27;20023;-75
2021/03/26 03:12:12;;;;;;;44.55;27.02;;;7.00;87.10;;;;;;5115034;27;20024;-75
2021/03/26 03:15:04;;;;;;;49.13;29.05;;;7.00;87.30;;;;;;5115455;27;20024;-75
2021/03/26 03:17:42;;;;;;;47.80;28.77;;;7.00;87.40;;;;;;5103890;27;20106;-75
2021/03/26 03:20:19;;;;;;;43.47;26.05;;;7.00;87.30;;;;;;5134184;27;20467;-75
2021/03/26 03:23:08;;;;;;;48.75;27.90;;;7.00;87.30;;;;;;5133232;27;20030;-76
2021/03/26 03:25:34;;;;;;;;;;;7.00;87.50;;;;;;5116001;27;20031;-75
2021/03/26 03:28:05;;;;;;;41.47;25.88;;;6.90;87.10;;;;;;5115938;27;20257;-75
2021/03/26 03:30:42;;;;;;;41.63;26.77;;;6.90;87.40;;;;;;5133893;27;20023;-75
2021/03/26 03:33:17;;;;;;;47.90;29.27;;;6.90;87.40;;;;;;5115543;27;20027;-75
2021/03/26 03:35:51;;;;;;;44.60;28.52;;;6.90;87.50;;;;;;5133831;27;20027;-75
2021/03/26 03:38:35;;;;;;;45.70;28.92;;;6.90;87.70;;;;;;5115395;28;20042;-75
2021/03/26 03:41:12;;;;;;;49.55;28.42;;;6.90;87.70;;;;;;5115056;27;20034;-76
2021/03/26 03:43:48;;;;;;;46.22;30.10;;;6.90;87.70;;;;;;5115082;28;20030;-75
2021/03/26 03:46:19;;;;;;;46.17;28.70;;;6.90;87.80;;;;;;5133360;27;20412;-75
2021/03/26 03:49:06;;;;;;;46.85;29.55;;;6.80;87.80;;;;;;5115374;28;20360;-75
2021/03/26 03:51:48;;;;;;;47.47;31.50;;;6.80;88.50;;;;;;5133734;28;20038;-75
2021/03/26 03:54:26;;;;;;;46.33;30.17;;;6.80;88.00;;;;;;5127334;27;20039;-76
2021/03/26 03:56:59;;;;;;;41.97;27.88;;;6.90;88.10;;;;;;5115255;28;20511;-75
2021/03/26 03:59:52;;;;;;;46.95;29.52;;;6.80;88.50;;;;;;5095206;28;20464;-75
2021/03/26 04:02:42;;;;;;;45.67;29.48;;;6.80;88.10;;;;;;5132783;27;20019;-76
2021/03/26 04:05:32;;;;;;;46.25;28.95;;;6.80;88.00;;;;;;5115147;27;20495;-75
2021/03/26 04:08:05;;;;;;;45.75;30.40;;;6.90;88.20;;;;;;5115423;28;20121;-76
2021/03/26 04:10:36;;;;;;;50.40;31.10;;;6.80;88.10;;;;;;5133285;27;20022;-76
2021/03/26 04:13:08;;;;;;;53.13;30.38;;;6.90;88.20;;;;;;5133944;28;20058;-75
2021/03/26 04:15:39;;;;;;;52.28;32.28;;;6.90;88.30;;;;;;5102186;27;20044;-76
2021/03/26 04:18:09;;;;;;;49.75;32.80;;;6.80;88.40;;;;;;5115421;28;20019;-76
2021/03/26 04:20:47;;;;;;;51.60;31.70;;;6.90;88.50;;;;;;5133235;28;20030;-75
2021/03/26 04:23:19;;;;;;;45.43;29.33;;;6.80;88.50;;;;;;5113264;28;20379;-76
2021/03/26 04:25:56;;;;;;;51.17;32.90;;;6.80;88.40;;;;;;5128753;27;20033;-75
2021/03/26 04:28:29;;;;;;;52.70;32.88;;;6.80;88.40;;;;;;5137304;27;20023;-75
2021/03/26 04:31:02;;;;;;;52.90;32.28;;;6.80;88.70;;;;;;5118665;27;20035;-76
2021/03/26 04:33:28;;;;;;;51.17;31.95;;;6.80;88.70;;;;;;5137175;27;20019;-75
2021/03/26 04:35:55;;;;;;;48.20;31.42;;;6.80;88.80;;;;;;5118552;27;20015;-75
2021/03/26 04:38:33;;;;;;;51.75;33.80;;;6.80;88.70;;;;;;5137284;27;20019;-75
2021/03/26 04:41:09;;;;;;;47.13;30.38;;;6.80;88.80;;;;;;5118270;27;20027;-75
2021/03/26 04:43:43;;;;;;;55.45;33.28;;;6.80;88.80;;;;;;5118680;27;20027;-75
2021/03/26 04:46:46;;;;;;;53.17;33.05;;;6.90;88.80;;;;;;5117725;27;20102;-75
2021/03/26 04:49:20;;;;;;;52.83;32.97;;;6.90;89.10;;;;;;5118755;27;20035;-76
2021/03/26 04:51:53;;;;;;;50.22;30.65;;;6.90;89.00;;;;;;5136554;27;20038;-76
2021/03/26 04:54:34;;;;;;;52.95;33.13;;;6.90;88.90;;;;;;5118446;27;20093;-76
2021/03/26 04:57:05;;;;;;;51.38;32.55;;;6.90;88.90;;;;;;5136389;27;20395;-75
2021/03/26 04:59:37;;;;;;;51.42;33.45;;;6.90;88.90;;;;;;5118777;27;20058;-75
2021/03/26 05:02:06;;;;;;;50.65;31.15;;;6.90;89.00;;;;;;5116988;27;20027;-75
2021/03/26 05:04:36;;;;;;;46.85;29.52;;;6.90;89.10;;;;;;5136818;27;20028;-75
2021/03/26 05:07:29;;;;;;;51.17;32.28;;;6.90;89.10;;;;;;5140902;27;20042;-75
2021/03/26 05:09:58;;;;;;;46.25;30.25;;;6.90;89.30;;;;;;5130099;27;20135;-75
2021/03/26 05:12:29;;;;;;;50.83;31.85;;;6.90;89.10;;;;;;5135352;27;20065;-75
2021/03/26 05:15:01;;;;;;;45.72;29.88;;;6.90;89.10;;;;;;5136111;27;20027;-75
2021/03/26 05:17:30;;;;;;;50.67;30.88;;;6.90;89.20;;;;;;5117772;27;20493;-75
2021/03/26 05:20:20;;;;;;;46.55;30.88;;;6.90;89.20;;;;;;5118058;27;20149;-75
2021/03/26 05:22:59;;;;;;;56.17;33.15;;;6.90;89.30;;;;;;5135689;27;20437;-75
2021/03/26 05:25:32;;;;;;;51.85;32.50;;;6.90;89.30;;;;;;5117907;27;20517;-75
2021/03/26 05:27:58;;;;;;;55.38;33.40;;;6.90;89.30;;;;;;5117076;27;20063;-75
2021/03/26 05:30:26;;;;;;;56.63;33.55;;;6.90;89.40;;;;;;5117272;27;20034;-75
2021/03/26 05:33:08;;;;;;;50.97;32.72;;;6.90;89.50;;;;;;5116972;27;20038;-75
2021/03/26 05:36:08;;;;;;;48.03;31.60;;;6.80;89.60;;;;;;5117306;27;20072;-75
2021/03/26 05:38:40;;;;;;;52.15;31.77;;;6.90;89.80;;;;;;5116360;27;20525;-76
2021/03/26 05:41:27;;;;;;;51.38;30.98;;;6.80;89.60;;;;;;5135600;27;20114;-76
2021/03/26 05:44:06;;;;;;;50.30;31.25;;;6.80;89.60;;;;;;5117357;27;20520;-75
2021/03/26 05:46:56;;;;;;;51.80;30.95;;;6.90;89.60;;;;;;5131460;27;20125;-75
2021/03/26 05:49:59;;;;;;;51.47;30.70;;;6.90;89.70;;;;;;5117242;27;20067;-75
2021/03/26 05:52:42;;;;;;;56.72;31.85;;;6.90;89.80;;;;;;5122695;27;20052;-75
2021/03/26 05:55:32;;;;;;;47.58;30.90;;;6.80;89.70;;;;;;5134285;27;20058;-75
2021/03/26 05:58:11;;;;;;;52.45;30.38;;;6.90;89.80;;;;;;5116524;27;20038;-75
2021/03/26 06:00:51;;;;;;;57.85;32.92;;;6.90;89.60;;;;;;5135232;27;20483;-75
2021/03/26 06:03:22;;;;;;;53.25;31.65;;;6.90;89.60;;;;;;5134779;27;20027;-75
2021/03/26 06:06:03;;;;;;;47.38;30.88;;;7.00;89.60;;;;;;5116936;27;20034;-75
2021/03/26 06:08:47;;;;;;;51.25;32.20;;;7.00;89.60;;;;;;5116040;27;20038;-76
2021/03/26 06:11:27;;;;;;;49.47;31.35;;;7.10;89.60;;;;;;5096770;28;20211;-76
2021/03/26 06:14:30;;;;;;;51.65;31.55;;;7.00;89.50;;;;;;5096749;28;20024;-75
2021/03/26 06:17:14;;;;;;;50.85;30.60;;;7.10;89.60;;;;;;5096759;28;20027;-75
2021/03/26 06:20:00;;;;;;;43.78;27.77;;;7.10;89.50;;;;;;5133895;27;20026;-75
2021/03/26 06:22:32;;;;;;;47.03;28.38;;;7.20;89.50;;;;;;5139078;27;20076;-75
2021/03/26 06:25:35;;;;;;;44.55;27.38;;;7.20;89.30;;;;;;5116554;27;20376;-75
2021/03/26 06:28:34;;;;;;;51.50;30.83;;;7.30;89.20;;;;;;5131215;27;20035;-75
2021/03/26 06:31:15;;;;;;;49.42;28.50;;;7.40;89.20;;;;;;5134354;27;20030;-75
2021/03/26 06:33:59;;;;;;;50.47;29.15;;;7.40;88.90;;;;;;5112031;27;20054;-75
2021/03/26 06:36:52;;;;;;;44.58;27.73;;;7.50;88.80;;;;;;5135421;27;20091;-75
2021/03/26 06:39:35;;;;;;;45.80;28.13;;;7.50;88.70;;;;;;5126822;27;20479;-75
2021/03/26 06:42:09;;;;;;;48.10;28.67;;;7.60;88.60;;;;;;5116695;27;20019;-75
2021/03/26 06:45:13;;;;;;;41.40;26.98;;;7.70;88.50;;;;;;5134785;27;20038;-75
2021/03/26 06:47:41;;;;;;;46.30;27.60;;;7.80;88.40;;;;;;5135948;27;20041;-75
2021/03/26 06:50:35;;;;;;;45.10;28.33;;;7.90;88.20;;;;;;5134895;27;20027;-75
2021/03/26 06:53:12;;;;;;;43.05;27.00;;;8.00;88.00;;;;;;5134243;27;20265;-76
2021/03/26 06:56:15;;;;;;;42.95;26.70;;;8.00;87.70;;;;;;5123982;27;20056;-76
2021/03/26 06:59:09;;;;;;;43.58;28.48;;;8.20;87.60;;;;;;5116163;27;20491;-75
2021/03/26 07:01:50;;;;;;;44.30;26.92;;;8.30;87.30;;;;;;5134574;27;20038;-75
2021/03/26 07:04:49;;;;;;;41.33;26.45;;;8.30;87.10;;;;;;5134045;27;20384;-75
2021/03/26 07:07:24;;;;;;;;;;;8.50;86.90;;;;;;5116457;27;20019;-75
2021/03/26 07:10:08;;;;;;;45.13;25.25;;;8.60;86.60;;;;;;5134533;27;19910;-75
2021/03/26 07:13:03;;;;;;;41.97;26.10;;;8.60;86.40;;;;;;5134282;27;20375;-75
2021/03/26 07:16:30;;;;;;;42.00;25.67;;;8.70;86.20;;;;;;5133927;27;20053;-76
2021/03/26 07:19:17;;;;;;;35.92;23.70;;;8.80;85.80;;;;;;5050951;27;20053;-75
2021/03/26 07:22:27;;;;;;;41.80;25.80;;;8.90;85.60;;;;;;5134242;27;20473;-75
2021/03/26 07:25:08;;;;;;;39.95;24.92;;;9.10;85.40;;;;;;5115756;27;20023;-75
2021/03/26 07:28:02;;;;;;;35.65;24.52;;;9.20;85.00;;;;;;5142393;27;20030;-75
2021/03/26 07:30:34;;;;;;;32.47;22.15;;;9.30;84.80;;;;;;5117205;27;20027;-76
2021/03/26 07:33:53;;;;;;;35.47;24.45;;;9.40;84.40;;;;;;5115424;27;20027;-75
2021/03/26 07:36:37;;;;;;;33.22;22.40;;;9.60;84.20;;;;;;5013741;28;20034;-75
2021/03/26 07:39:22;;;;;;;34.05;22.38;;;9.70;83.90;;;;;;5106264;27;20031;-75
2021/03/26 07:42:25;;;;;;;33.75;21.98;;;9.80;83.60;;;;;;5115548;27;20488;-75
2021/03/26 07:45:20;;;;;;;32.33;21.92;;;10.00;83.30;;;;;;5133215;27;20019;-75
2021/03/26 07:48:25;;;;;;;30.73;21.45;;;10.10;82.80;;;;;;5096656;28;20096;-76
2021/03/26 07:50:56;;;;;;;30.23;20.42;;;10.20;82.60;;;;;;5133909;27;20106;-76
2021/03/26 07:53:59;;;;;;;33.70;19.33;;;10.30;82.10;;;;;;5113211;28;20077;-76
2021/03/26 07:56:46;;;;;;;29.60;18.90;;;10.50;81.70;;;;;;5124039;27;20027;-76
2021/03/26 07:59:36;;;;;;;25.85;19.23;;;10.60;81.40;;;;;;5116616;27;20395;-75
2021/03/26 08:02:29;;;;;;;28.58;20.55;;;10.70;80.90;;;;;;5137092;27;20023;-75
2021/03/26 08:05:06;;;;;;;29.42;19.27;;;10.80;80.60;;;;;;5119413;27;20050;-75
2021/03/26 08:07:46;;;;;;;29.52;19.70;;;10.90;80.10;;;;;;5118752;27;20020;-75
2021/03/26 08:10:18;;;;;;;28.05;19.02;;;11.10;79.80;;;;;;5119016;27;20034;-75
2021/03/26 08:13:09;;;;;;;27.85;19.05;;;11.20;79.60;;;;;;5119292;27;20430;-75
2021/03/26 08:16:07;;;;;;;27.27;18.15;;;11.30;79.30;;;;;;5119328;27;20027;-75
2021/03/26 08:18:55;;;;;;;28.42;17.70;;;11.50;78.50;;;;;;5091028;27;20100;-75
2021/03/26 08:21:48;;;;;;;25.30;17.80;;;11.60;78.30;;;;;;5137309;27;20023;-75
2021/03/26 08:24:16;;;;;;;25.83;17.35;;;11.70;77.70;;;;;;5137589;27;20034;-76
2021/03/26 08:26:49;;;;;;;25.85;16.80;;;11.80;77.40;;;;;;5136894;27;20031;-76
2021/03/26 08:29:38;;;;;;;23.70;15.85;;;11.90;76.80;;;;;;5118694;27;20069;-76
2021/03/26 08:32:25;;;;;;;25.15;16.63;;;12.00;77.10;;;;;;5136649;27;20031;-76
2021/03/26 08:35:27;;;;;;;23.83;15.20;;;12.20;76.10;;;;;;5137042;27;20026;-76
2021/03/26 08:38:15;;;;;;;21.60;14.00;;;12.30;75.70;;;;;;5129529;27;20487;-76
2021/03/26 08:40:55;;;;;;;20.47;14.37;;;12.40;74.90;;;;;;5136450;27;20024;-75
2021/03/26 08:43:21;;;;;;;20.70;13.45;;;12.50;74.40;;;;;;5118517;27;20023;-76
2021/03/26 08:46:24;;;;;;;19.88;12.25;;;12.70;74.20;;;;;;5081410;28;20028;-76
2021/03/26 08:49:04;;;;;;;17.02;11.88;;;12.80;74.00;;;;;;5120770;27;20011;-76
2021/03/26 08:51:50;;;;;;;19.00;11.73;;;13.00;72.60;;;;;;5136729;27;20042;-76
2021/03/26 08:54:34;;;;;;;20.15;11.88;;;13.00;71.90;;;;;;5136264;27;20051;-76
2021/03/26 08:57:17;;;;;;;15.52;11.07;;;13.20;72.00;;;;;;5136227;27;20102;-76
2021/03/26 09:00:02;;;;;;;15.07;10.05;;;13.30;71.70;;;;;;5118409;27;20030;-76
2021/03/26 09:02:42;;;;;;;18.05;11.55;;;13.40;71.20;;;;;;5136734;27;20110;-76
2021/03/26 09:05:35;;;;;;;15.63;11.00;;;13.50;70.40;;;;;;5136448;27;20027;-76
2021/03/26 09:08:29;;;;;;;14.23;9.50;;;13.60;69.50;;;;;;5136866;27;20486;-76
2021/03/26 09:11:15;;;;;;;15.57;9.27;;;13.60;69.10;;;;;;5136916;27;20041;-76
2021/03/26 09:14:18;;;;;;;16.17;9.75;;;13.70;68.70;;;;;;5137336;27;20019;-76
2021/03/26 09:17:03;;;;;;;18.67;9.25;;;13.80;67.90;;;;;;5109229;27;20027;-78
2021/03/26 09:19:44;;;;;;;12.10;8.10;;;13.90;67.30;;;;;;5136711;27;20023;-77
2021/03/26 09:23:04;;;;;;;14.25;7.80;;;14.00;66.30;;;;;;5136853;27;20483;-77
2021/03/26 09:25:47;;;;;;;14.05;8.35;;;14.20;65.20;;;;;;5032666;28;20038;-76
2021/03/26 09:28:37;;;;;;;13.57;7.03;;;14.50;65.00;;;;;;5108423;28;20123;-75
2021/03/26 09:31:14;;;;;;;13.88;7.55;;;14.60;64.20;;;;;;5115698;28;20106;-76
2021/03/26 09:33:56;;;;;;;16.13;7.65;;;14.70;63.00;;;;;;5101678;27;20042;-77
2021/03/26 09:36:27;;;;;;;16.00;8.00;;;14.80;63.10;;;;;;5117535;27;20472;-79
2021/03/26 09:39:07;;;;;;;15.32;8.07;;;15.00;63.10;;;;;;5151690;27;20023;-76
2021/03/26 09:41:51;;;;;;;13.63;8.23;;;15.20;62.20;;;;;;5136990;27;20491;-80
2021/03/26 09:44:49;;;;;;;15.40;8.63;;;15.30;61.50;;;;;;5136832;27;20019;-82
2021/03/26 09:47:29;;;;;;;13.57;7.82;;;15.40;61.10;;;;;;5136520;27;20046;-81
2021/03/26 09:50:24;;;;;;;12.07;7.13;;;15.40;61.10;;;;;;5136482;27;20047;-76
2021/03/26 09:52:50;;;;;;;11.63;6.88;;;15.60;61.10;;;;;;5117140;27;20027;-80
2021/03/26 09:55:27;;;;;;;10.98;7.47;;;15.70;60.20;;;;;;5117805;27;20043;-79
2021/03/26 09:58:18;;;;;;;15.23;7.32;;;15.80;59.80;;;;;;5136233;27;20037;-80
2021/03/26 10:01:16;;;;;;;14.48;7.18;;;15.80;59.30;;;;;;5124843;27;20110;-78
2021/03/26 10:03:59;;;;;;;12.57;7.17;;;16.00;59.10;;;;;;5134979;27;20026;-78
2021/03/26 10:06:43;;;;;;;13.00;6.60;;;16.10;59.50;;;;;;5135861;27;20068;-78
2021/03/26 10:12:12;;;;;;;13.02;6.68;;;15.90;59.50;;;;;;5135875;27;20031;-78
2021/03/26 10:14:45;;;;;;;11.90;6.80;;;15.80;59.70;;;;;;5135511;27;20059;-78
2021/03/26 10:17:11;;;;;;;10.70;4.18;;;15.80;60.60;;;;;;5135326;27;20022;-78
2021/03/26 10:19:55;;;;;;;6.65;2.92;;;16.00;59.10;;;;;;5116651;27;20015;-78
2021/03/26 10:22:43;;;;;;;5.70;2.40;;;16.00;57.20;;;;;;5134095;27;20482;-77
2021/03/26 10:25:23;;;;;;;4.65;2.10;;;15.90;56.60;;;;;;5116878;27;20398;-77
2021/03/26 10:28:20;;;;;;;6.85;2.50;;;15.70;56.30;;;;;;5116672;27;20160;-76
2021/03/26 10:30:51;;;;;;;11.32;3.05;;;15.60;55.50;;;;;;5116540;27;20046;-77
2021/03/26 10:33:20;;;;;;;8.05;2.58;;;15.60;54.50;;;;;;5116809;27;20025;-76
2021/03/26 10:36:11;;;;;;;7.00;2.42;;;15.70;54.00;;;;;;5134543;27;20535;-76
2021/03/26 10:39:01;;;;;;;7.20;3.10;;;15.80;54.40;;;;;;5124905;27;20031;-77
2021/03/26 10:41:54;;;;;;;7.13;2.83;;;15.70;54.40;;;;;;5116592;27;20019;-77
2021/03/26 10:44:38;;;;;;;7.07;2.55;;;15.50;54.70;;;;;;5134455;27;20054;-76
2021/03/26 10:47:13;;;;;;;8.43;3.08;;;15.40;56.00;;;;;;5115410;27;20035;-77
2021/03/26 10:49:47;;;;;;;6.53;2.58;;;15.30;55.40;;;;;;5134522;27;20102;-76
2021/03/26 10:52:24;;;;;;;15.95;3.10;;;15.20;55.50;;;;;;5115859;27;20027;-77
2021/03/26 10:54:59;;;;;;;7.63;2.72;;;15.20;54.60;;;;;;5116390;27;20138;-76
2021/03/26 10:57:44;;;;;;;6.13;2.60;;;15.10;55.20;;;;;;5134867;27;20486;-76
2021/03/26 11:00:20;;;;;;;7.22;3.03;;;15.10;55.00;;;;;;5116216;27;20077;-76
2021/03/26 11:02:51;;;;;;;8.48;3.33;;;15.10;55.00;;;;;;5134573;27;20015;-76
2021/03/26 11:05:27;;;;;;;7.85;2.88;;;15.10;54.90;;;;;;5134587;27;20483;-77
2021/03/26 11:07:59;;;;;;;7.72;2.95;;;15.10;55.00;;;;;;5134198;27;20039;-77
2021/03/26 11:10:39;;;;;;;7.63;2.75;;;15.40;54.90;;;;;;5134331;27;20105;-76
2021/03/26 11:13:15;;;;;;;9.77;2.70;;;15.70;55.10;;;;;;5134299;27;20023;-78
2021/03/26 11:15:49;;;;;;;10.07;2.90;;;16.00;54.50;;;;;;5133726;27;20556;-78
2021/03/26 11:18:35;;;;;;;11.13;3.17;;;16.10;54.40;;;;;;5133791;27;20072;-77
2021/03/26 11:21:15;;;;;;;10.20;3.00;;;16.10;53.80;;;;;;5125301;27;20023;-77
2021/03/26 11:23:41;;;;;;;10.32;3.22;;;16.20;53.90;;;;;;5134482;27;20020;-79
2021/03/26 11:26:27;;;;;;;12.00;3.00;;;16.20;53.50;;;;;;5115805;27;20471;-79
2021/03/26 11:28:53;;;;;;;7.35;3.42;;;16.10;53.80;;;;;;5115581;27;20035;-78
2021/03/26 11:31:29;;;;;;;6.97;3.35;;;16.10;53.30;;;;;;5115423;27;20034;-79
2021/03/26 11:34:32;;;;;;;9.55;3.40;;;16.10;53.30;;;;;;5115843;28;20051;-79
2021/03/26 11:37:06;;;;;;;8.40;3.20;;;16.20;52.70;;;;;;5134399;27;20023;-79
2021/03/26 11:39:56;;;;;;;5.80;2.60;;;16.20;53.10;;;;;;5115532;27;20106;-78
2021/03/26 11:42:29;;;;;;;6.25;3.08;;;16.40;53.10;;;;;;5124899;27;20023;-79
2021/03/26 11:45:20;;;;;;;10.95;4.22;;;16.70;52.50;;;;;;5115052;28;20031;-78
2021/03/26 11:48:03;;;;;;;7.25;4.07;;;16.80;51.30;;;;;;5121867;27;20043;-77
2021/03/26 11:51:05;;;;;;;7.00;3.75;;;16.70;51.80;;;;;;5131324;27;20036;-77
2021/03/26 11:53:43;;;;;;;9.43;4.28;;;16.70;52.20;;;;;;5154133;27;20375;-77
2021/03/26 11:56:11;;;;;;;8.32;4.13;;;16.90;51.70;;;;;;5123400;27;20023;-77
2021/03/26 11:59:35;;;;;;;7.57;4.18;;;17.20;51.60;;;;;;5133504;27;20020;-76
2021/03/26 12:02:18;;;;;;;10.95;4.28;;;17.50;51.00;;;;;;5133306;27;20023;-76
2021/03/26 12:05:16;;;;;;;9.30;3.92;;;17.60;50.30;;;;;;5132886;28;20073;-77
2021/03/26 12:07:49;;;;;;;6.63;3.60;;;17.80;50.10;;;;;;5077115;28;20067;-76
2021/03/26 12:10:33;;;;;;;9.45;3.80;;;18.00;49.70;;;;;;5094872;28;20069;-76
2021/03/26 12:13:24;;;;;;;8.45;3.47;;;18.20;48.70;;;;;;5132912;28;20428;-77
2021/03/26 12:16:03;;;;;;;7.93;3.10;;;18.40;49.40;;;;;;5115013;28;20023;-76
2021/03/26 12:18:57;;;;;;;5.65;2.85;;;18.50;48.90;;;;;;5115232;28;20468;-77
2021/03/26 12:21:29;;;;;;;7.78;2.92;;;18.70;48.40;;;;;;5133732;28;20043;-77
2021/03/26 12:24:14;;;;;;;6.20;2.58;;;18.80;47.00;;;;;;5133392;27;20487;-76
2021/03/26 12:27:15;;;;;;;5.38;1.85;;;18.80;46.30;;;;;;5114219;28;20031;-76
2021/03/26 12:29:52;;;;;;;5.30;1.60;;;18.90;47.30;;;;;;5114114;28;20035;-76
2021/03/26 12:32:36;;;;;;;10.63;2.47;;;18.80;47.60;;;;;;5132722;27;20037;-76
2021/03/26 12:35:14;;;;;;;5.60;2.15;;;18.90;46.90;;;;;;5122849;28;20023;-76
2021/03/26 12:38:02;;;;;;;5.85;2.10;;;19.00;46.90;;;;;;5131986;27;20035;-76
2021/03/26 12:40:54;;;;;;;8.52;2.65;;;19.00;46.30;;;;;;5133415;27;20373;-77
2021/03/26 12:43:25;;;;;;;7.18;2.35;;;19.00;46.00;;;;;;5133221;27;20015;-76
2021/03/26 12:45:59;;;;;;;5.25;2.22;;;19.10;45.90;;;;;;5136156;27;20019;-76
2021/03/26 12:48:36;;;;;;;7.35;2.60;;;19.20;46.10;;;;;;5148117;27;20023;-76
2021/03/26 12:51:21;;;;;;;4.90;2.10;;;19.30;46.30;;;;;;5134816;27;20027;-76
2021/03/26 12:54:00;;;;;;;4.78;2.03;;;19.40;46.10;;;;;;5136856;27;20039;-76
2021/03/26 12:56:52;;;;;;;6.07;2.30;;;19.50;46.00;;;;;;5120055;27;20461;-76
2021/03/26 12:59:26;;;;;;;5.53;2.50;;;19.50;45.30;;;;;;5097359;27;20035;-76
2021/03/26 13:02:03;;;;;;;5.03;2.88;;;19.30;45.00;;;;;;5137096;27;20046;-76
2021/03/26 13:04:35;;;;;;;5.03;2.63;;;19.00;45.10;;;;;;5118162;27;21584;-77
2021/03/26 13:07:05;;;;;;;5.63;2.50;;;18.60;45.80;;;;;;5118358;27;20027;-76
2021/03/26 13:09:37;;;;;;;5.43;2.60;;;18.30;45.80;;;;;;5118412;27;20389;-76
2021/03/26 13:12:13;;;;;;;4.38;2.42;;;18.00;46.00;;;;;;5118436;27;20027;-77
2021/03/26 13:14:53;;;;;;;3.88;2.20;;;17.90;46.70;;;;;;5136708;27;20471;-77
2021/03/26 13:17:32;;;;;;;5.75;2.35;;;18.00;47.00;;;;;;5136611;27;20027;-76
2021/03/26 13:20:05;;;;;;;6.22;2.60;;;18.00;46.70;;;;;;5136614;27;20444;-76
2021/03/26 13:22:40;;;;;;;5.20;2.10;;;18.00;46.50;;;;;;5117969;27;20150;-76
2021/03/26 13:25:24;;;;;;;5.88;2.30;;;17.90;46.70;;;;;;5136297;27;20075;-77
2021/03/26 13:28:06;;;;;;;3.50;1.63;;;17.90;47.30;;;;;;5136374;27;20102;-76
2021/03/26 13:30:37;;;;;;;4.65;2.20;;;18.00;47.20;;;;;;5136087;27;20105;-76
2021/03/26 13:33:10;;;;;;;3.88;2.22;;;18.00;46.60;;;;;;5117884;27;20050;-77
2021/03/26 13:35:57;;;;;;;5.85;2.03;;;17.80;46.70;;;;;;5117152;27;20027;-76
2021/03/26 13:38:36;;;;;;;8.43;2.03;;;17.70;47.00;;;;;;5117501;27;20020;-76
2021/03/26 13:41:06;;;;;;;6.85;1.90;;;17.70;47.10;;;;;;5115725;28;20480;-76
2021/03/26 13:43:40;;;;;;;9.10;2.25;;;17.70;47.20;;;;;;5114811;27;20023;-76